Time;durP1;ratioP1;P1;durP2;ratioP2;P2;SDS_P1;SDS_P2;PMS_P1;PMS_P2;Temp;Humidity;BMP_temperature;BMP_pressure;BME280_temperature;BME280_humidity;BME280_pressure;Samples;Min_cycle;Max_cycle;Signal;HPM_P1;HPM_P2
2022/01/20 00:01:50;;;;;;;3.60;3.30;;;10.00;99.90;;;;;;4913046;29;20258;-61
2022/01/20 00:04:40;;;;;;;4.37;2.90;;;10.00;99.90;;;;;;4918784;29;20473;-60
2022/01/20 00:07:33;;;;;;;2.47;2.33;;;9.90;99.90;;;;;;4919457;29;20451;-60
2022/01/20 00:26:53;;;;;;;4.27;3.97;;;9.50;99.90;;;;;;4924594;29;20199;-60
2022/01/20 00:29:31;;;;;;;7.13;6.43;;;9.60;99.90;;;;;;4921777;29;20439;-60
2022/01/20 00:32:12;;;;;;;7.03;5.63;;;9.60;99.90;;;;;;4914463;29;20655;-60
2022/01/20 00:37:33;;;;;;;3.63;3.35;;;9.50;99.90;;;;;;4919841;29;20463;-60
2022/01/20 00:40:06;;;;;;;4.50;4.03;;;9.50;99.90;;;;;;4919262;29;20738;-60
2022/01/20 00:42:37;;;;;;;3.92;3.63;;;9.50;99.90;;;;;;4917452;29;20225;-60
2022/01/20 00:45:10;;;;;;;4.07;3.67;;;9.50;99.90;;;;;;4925186;29;20250;-60
2022/01/20 00:47:42;;;;;;;5.18;3.83;;;9.50;99.90;;;;;;4920753;29;20191;-61
2022/01/20 00:50:14;;;;;;;4.10;3.70;;;9.50;99.90;;;;;;4907820;29;20263;-60
2022/01/20 00:52:46;;;;;;;4.68;4.20;;;9.50;99.90;;;;;;4912920;29;22094;-61
2022/01/20 00:55:17;;;;;;;4.20;3.80;;;9.50;99.90;;;;;;4919946;29;20203;-61
2022/01/20 00:57:48;;;;;;;3.88;3.58;;;9.60;99.90;;;;;;4926034;29;20294;-62
2022/01/20 01:00:21;;;;;;;4.40;4.10;;;9.60;99.90;;;;;;4906976;29;20334;-62
2022/01/20 01:02:57;;;;;;;3.80;3.50;;;9.60;99.90;;;;;;4907618;29;20195;-62
2022/01/20 01:05:29;;;;;;;4.07;3.77;;;9.60;99.90;;;;;;4910717;29;20224;-61
2022/01/20 01:08:06;;;;;;;4.47;4.00;;;9.50;99.90;;;;;;4915616;29;20495;-62
2022/01/20 01:10:39;;;;;;;4.63;4.30;;;9.50;99.90;;;;;;4923732;29;20569;-62
2022/01/20 01:13:15;;;;;;;5.45;4.97;;;9.50;99.90;;;;;;4907395;29;20229;-61
2022/01/20 01:15:48;;;;;;;5.90;5.13;;;9.50;99.90;;;;;;4909956;29;20213;-60
2022/01/20 01:21:27;;;;;;;6.00;5.40;;;9.40;99.90;;;;;;4919149;29;20297;-60
2022/01/20 01:24:00;;;;;;;6.10;5.47;;;9.40;99.90;;;;;;4911155;29;20215;-60
2022/01/20 01:26:38;;;;;;;6.10;5.60;;;9.40;99.90;;;;;;4918397;29;20501;-61
2022/01/20 01:29:25;;;;;;;5.50;5.10;;;9.40;99.90;;;;;;4921081;29;20641;-61
2022/01/20 01:31:56;;;;;;;5.80;5.28;;;9.40;99.90;;;;;;4924187;29;20211;-60
2022/01/20 01:34:28;;;;;;;5.00;4.60;;;9.40;99.90;;;;;;4919123;29;20325;-61
2022/01/20 01:37:07;;;;;;;4.40;4.10;;;9.40;99.90;;;;;;4916487;29;20207;-61
2022/01/20 01:39:39;;;;;;;4.10;3.80;;;9.40;99.90;;;;;;4918490;29;20230;-61
2022/01/20 01:42:36;;;;;;;4.85;4.35;;;9.40;99.90;;;;;;4922571;29;20215;-61
2022/01/20 01:45:12;;;;;;;4.95;4.55;;;9.40;99.90;;;;;;4916056;29;20187;-60
2022/01/20 01:47:43;;;;;;;4.75;4.25;;;9.50;99.90;;;;;;4914767;29;20266;-59
2022/01/20 01:50:19;;;;;;;5.07;4.68;;;9.50;99.90;;;;;;4915771;29;20203;-61
2022/01/20 01:52:54;;;;;;;4.72;4.20;;;9.40;99.90;;;;;;4920865;29;20218;-61
2022/01/20 01:55:27;;;;;;;4.35;4.00;;;9.40;99.90;;;;;;4918236;29;20428;-60
2022/01/20 01:57:59;;;;;;;5.70;5.20;;;9.50;99.90;;;;;;4921840;29;20204;-55
2022/01/20 02:00:31;;;;;;;5.13;4.70;;;9.50;99.90;;;;;;4922138;29;20227;-60
2022/01/20 02:03:02;;;;;;;5.40;4.90;;;9.50;99.90;;;;;;4926055;29;20683;-59
2022/01/20 02:05:36;;;;;;;18.08;7.35;;;9.40;99.90;;;;;;4920681;29;20469;-59
2022/01/20 02:08:30;;;;;;;3.92;3.63;;;9.40;99.90;;;;;;4924508;29;20209;-59
2022/01/20 02:19:48;;;;;;;4.05;3.75;;;9.40;99.90;;;;;;4888246;29;20303;-60
2022/01/20 02:22:19;;;;;;;5.88;5.35;;;9.40;99.90;;;;;;4875263;29;20239;-60
2022/01/20 02:24:49;;;;;;;5.50;5.00;;;9.40;99.90;;;;;;4878696;29;20584;-60
2022/01/20 02:27:21;;;;;;;7.13;5.23;;;9.40;99.90;;;;;;4888784;29;20461;-59
2022/01/20 02:29:52;;;;;;;4.30;3.90;;;9.40;99.90;;;;;;4887821;29;20460;-62
2022/01/20 02:32:23;;;;;;;5.85;5.00;;;9.50;99.90;;;;;;4884164;29;20284;-61
2022/01/20 02:34:55;;;;;;;5.35;4.93;;;9.40;99.90;;;;;;4886068;29;20204;-60
2022/01/20 02:37:26;;;;;;;6.10;5.30;;;9.40;99.90;;;;;;4882999;29;20936;-66
2022/01/20 02:40:26;;;;;;;5.00;4.63;;;9.40;99.90;;;;;;4884519;29;20196;-60
2022/01/20 02:45:43;;;;;;;4.32;3.97;;;9.40;99.90;;;;;;4909427;29;20454;-60
2022/01/20 02:48:14;;;;;;;4.70;4.27;;;9.40;99.90;;;;;;4920012;29;20228;-60
2022/01/20 02:50:48;;;;;;;381.55;70.03;;;9.40;99.90;;;;;;4920259;29;20978;-61
2022/01/20 02:53:19;;;;;;;5.63;5.13;;;9.40;99.90;;;;;;4915557;29;20209;-60
2022/01/20 02:55:51;;;;;;;6.90;6.20;;;9.40;99.90;;;;;;4919317;29;20216;-59
2022/01/20 02:58:24;;;;;;;4.63;4.22;;;9.40;99.90;;;;;;4919575;29;20213;-60
2022/01/20 03:00:56;;;;;;;4.40;4.00;;;9.30;99.90;;;;;;4923236;29;20587;-60
2022/01/20 03:03:27;;;;;;;4.43;4.05;;;9.30;99.90;;;;;;4919988;29;20214;-61
2022/01/20 03:06:00;;;;;;;4.43;4.00;;;9.30;99.90;;;;;;4922031;29;20609;-62
2022/01/20 03:08:30;;;;;;;5.07;4.65;;;9.30;99.90;;;;;;4926097;29;20270;-60
2022/01/20 03:11:03;;;;;;;6.07;5.25;;;9.20;99.90;;;;;;4925903;29;20285;-61
2022/01/20 03:13:35;;;;;;;4.97;4.57;;;9.30;99.90;;;;;;4922061;29;20624;-60
2022/01/20 03:16:06;;;;;;;4.70;4.40;;;9.20;99.90;;;;;;4916481;29;20559;-62
2022/01/20 03:18:38;;;;;;;5.07;4.65;;;9.10;99.90;;;;;;4923665;29;20450;-60
2022/01/20 03:21:10;;;;;;;5.45;4.95;;;9.20;99.90;;;;;;4928315;29;20244;-60
2022/01/20 03:23:41;;;;;;;5.13;4.72;;;9.20;99.90;;;;;;4919708;29;20217;-61
2022/01/20 03:26:12;;;;;;;5.80;5.05;;;9.20;99.90;;;;;;4911378;29;20207;-61
2022/01/20 03:28:43;;;;;;;5.30;4.90;;;9.20;99.90;;;;;;4911318;29;20203;-61
2022/01/20 03:31:14;;;;;;;4.65;4.15;;;9.20;99.90;;;;;;4922187;29;20225;-61
2022/01/20 03:33:46;;;;;;;5.00;4.53;;;9.20;99.90;;;;;;4922290;29;20203;-61
2022/01/20 03:36:20;;;;;;;4.88;4.47;;;9.20;99.90;;;;;;4920756;29;20214;-61
2022/01/20 03:38:50;;;;;;;5.87;5.37;;;9.20;99.90;;;;;;4924523;29;20222;-61
2022/01/20 03:41:22;;;;;;;4.77;4.37;;;9.30;99.90;;;;;;4924201;29;20482;-61
2022/01/20 03:43:53;;;;;;;5.03;4.53;;;9.20;99.90;;;;;;4921265;29;20529;-61
2022/01/20 03:46:24;;;;;;;4.55;4.25;;;9.10;99.90;;;;;;4918082;29;20455;-61
2022/01/20 03:49:08;;;;;;;5.15;4.75;;;9.10;99.90;;;;;;4919345;29;20265;-61
2022/01/20 03:51:40;;;;;;;5.05;4.57;;;9.10;99.90;;;;;;4923641;29;20207;-61
2022/01/20 03:54:11;;;;;;;6.53;4.43;;;9.10;99.90;;;;;;4923636;29;20206;-61
2022/01/20 03:56:42;;;;;;;5.03;4.63;;;9.10;99.90;;;;;;4926050;29;20270;-60
2022/01/20 03:59:13;;;;;;;4.70;4.30;;;9.00;99.90;;;;;;4923044;29;20228;-60
2022/01/20 04:01:43;;;;;;;4.68;4.28;;;9.00;99.90;;;;;;4924485;29;20230;-60
2022/01/20 04:04:16;;;;;;;5.07;4.68;;;9.10;99.90;;;;;;4922814;29;20234;-60
2022/01/20 04:06:49;;;;;;;5.03;4.63;;;9.10;99.90;;;;;;4925635;29;20317;-60
2022/01/20 04:09:24;;;;;;;5.32;4.88;;;9.10;99.90;;;;;;4916999;29;20226;-60
2022/01/20 04:11:58;;;;;;;5.80;5.30;;;9.20;99.90;;;;;;4917934;29;20302;-60
2022/01/20 04:14:32;;;;;;;5.80;5.25;;;9.10;99.90;;;;;;4922053;29;20213;-60
2022/01/20 04:17:04;;;;;;;6.00;5.50;;;9.10;99.90;;;;;;4922735;29;20202;-60
2022/01/20 04:19:37;;;;;;;5.00;4.60;;;9.20;99.90;;;;;;4918577;29;20478;-61
2022/01/20 04:22:10;;;;;;;5.93;5.43;;;9.20;99.90;;;;;;4925786;29;20235;-61
2022/01/20 04:24:47;;;;;;;6.15;5.55;;;9.30;99.90;;;;;;4919127;29;20206;-64
2022/01/20 04:27:21;;;;;;;5.82;5.35;;;9.20;99.90;;;;;;4922343;29;20282;-63
2022/01/20 04:29:52;;;;;;;5.78;5.25;;;9.20;99.90;;;;;;4921694;29;20191;-62
2022/01/20 04:32:24;;;;;;;5.38;4.82;;;9.20;99.90;;;;;;4922411;29;20213;-61
2022/01/20 04:34:54;;;;;;;4.80;4.40;;;9.10;99.90;;;;;;4919027;29;20210;-62
2022/01/20 04:37:27;;;;;;;4.80;4.40;;;9.00;99.90;;;;;;4921945;29;20461;-61
2022/01/20 04:40:00;;;;;;;5.88;5.32;;;8.90;99.90;;;;;;4925348;29;20203;-62
2022/01/20 04:42:34;;;;;;;4.80;4.40;;;9.00;99.90;;;;;;4926662;29;20320;-61
2022/01/20 04:45:12;;;;;;;5.50;5.00;;;8.90;99.90;;;;;;4925771;29;20190;-61
2022/01/20 04:47:50;;;;;;;5.32;4.93;;;9.00;99.90;;;;;;4919003;29;20207;-62
2022/01/20 05:01:34;;;;;;;6.70;6.10;;;9.00;99.90;;;;;;4922340;29;20286;-63
2022/01/20 05:04:08;;;;;;;5.60;5.10;;;9.00;99.90;;;;;;4923037;29;20217;-61
2022/01/20 05:06:41;;;;;;;5.95;5.35;;;9.00;99.90;;;;;;4918402;29;20203;-61
2022/01/20 05:09:24;;;;;;;4.72;4.20;;;9.00;99.90;;;;;;4916637;29;20199;-61
2022/01/20 05:12:00;;;;;;;5.05;4.65;;;9.10;99.90;;;;;;4925372;29;20199;-62
2022/01/20 05:14:31;;;;;;;5.18;4.78;;;9.10;99.90;;;;;;4921234;29;20206;-62
2022/01/20 05:17:03;;;;;;;5.50;5.10;;;9.00;99.90;;;;;;4923179;29;20270;-61
2022/01/20 05:19:34;;;;;;;5.30;4.80;;;9.00;99.90;;;;;;4918289;29;20227;-62
2022/01/20 05:22:05;;;;;;;4.68;4.28;;;9.00;99.90;;;;;;4915997;29;20231;-62
2022/01/20 05:24:38;;;;;;;4.65;4.25;;;9.00;99.90;;;;;;4910387;29;20662;-62
2022/01/20 05:27:09;;;;;;;4.83;4.43;;;9.00;99.90;;;;;;4918758;29;20278;-62
2022/01/20 05:29:41;;;;;;;5.70;5.18;;;9.00;99.90;;;;;;4912541;29;20455;-61
2022/01/20 05:32:11;;;;;;;4.50;4.10;;;9.00;99.90;;;;;;4916605;29;20231;-61
2022/01/20 05:34:43;;;;;;;4.30;3.90;;;9.00;99.90;;;;;;4919455;29;20215;-61
2022/01/20 05:37:14;;;;;;;4.27;3.90;;;9.00;99.90;;;;;;4922195;29;20199;-62
2022/01/20 05:39:51;;;;;;;4.25;3.88;;;8.90;99.90;;;;;;4917860;29;20459;-62
2022/01/20 05:42:22;;;;;;;5.32;4.13;;;9.00;99.90;;;;;;4914429;29;20225;-61
2022/01/20 05:44:53;;;;;;;4.10;3.80;;;9.00;99.90;;;;;;4926886;29;20207;-62
2022/01/20 05:47:29;;;;;;;4.10;3.80;;;8.90;99.90;;;;;;4924529;29;20378;-62
2022/01/20 05:50:04;;;;;;;4.35;4.05;;;8.90;99.90;;;;;;4929259;29;20220;-61
2022/01/20 05:52:41;;;;;;;4.40;3.88;;;8.90;99.90;;;;;;4929511;29;20647;-62
2022/01/20 05:55:20;;;;;;;4.80;4.40;;;8.90;99.90;;;;;;4928804;29;20204;-62
2022/01/20 05:57:51;;;;;;;4.63;4.23;;;9.00;99.90;;;;;;4928848;29;20191;-62
2022/01/20 06:00:24;;;;;;;5.10;4.47;;;9.00;99.90;;;;;;4928841;29;20458;-62
2022/01/20 06:05:44;;;;;;;4.57;4.25;;;9.00;99.90;;;;;;4929310;29;20211;-62
2022/01/20 06:08:16;;;;;;;4.40;4.10;;;9.00;99.90;;;;;;4918666;29;20204;-62
2022/01/20 06:10:49;;;;;;;4.70;4.30;;;8.90;99.90;;;;;;4926033;29;20210;-62
2022/01/20 06:13:23;;;;;;;4.50;4.10;;;8.90;99.90;;;;;;4923691;29;20206;-62
2022/01/20 06:15:54;;;;;;;5.13;4.68;;;8.90;99.90;;;;;;4927989;29;20207;-62
2022/01/20 06:18:25;;;;;;;4.18;3.78;;;8.80;99.90;;;;;;4927662;29;20230;-62
2022/01/20 06:20:56;;;;;;;4.10;3.70;;;8.90;99.90;;;;;;4928123;29;20218;-61
2022/01/20 06:23:27;;;;;;;4.85;4.45;;;9.00;99.90;;;;;;4911775;29;20294;-61
2022/01/20 06:26:04;;;;;;;4.28;3.88;;;9.00;99.90;;;;;;4927733;29;20643;-59
2022/01/20 06:28:40;;;;;;;3.85;3.55;;;8.90;99.90;;;;;;4925026;29;20202;-60
2022/01/20 06:31:11;;;;;;;3.80;3.50;;;8.90;99.90;;;;;;4926805;29;20198;-60
2022/01/20 06:33:49;;;;;;;6.25;5.10;;;8.90;99.90;;;;;;4925547;29;20199;-61
2022/01/20 06:36:19;;;;;;;4.88;4.40;;;8.90;99.90;;;;;;4927698;29;20229;-60
2022/01/20 06:38:54;;;;;;;4.55;4.13;;;8.90;99.90;;;;;;4919009;29;20202;-59
2022/01/20 06:41:28;;;;;;;4.07;3.75;;;8.90;99.90;;;;;;4921209;29;20248;-60
2022/01/20 06:43:59;;;;;;;4.47;4.18;;;8.90;99.90;;;;;;4913955;29;20236;-60
2022/01/20 06:46:30;;;;;;;5.15;4.60;;;8.80;99.90;;;;;;4927171;29;20297;-60
2022/01/20 06:49:01;;;;;;;4.90;4.50;;;8.90;99.90;;;;;;4925893;29;20246;-60
2022/01/20 06:51:32;;;;;;;4.75;4.35;;;9.00;99.90;;;;;;4919925;29;20207;-60
2022/01/20 06:54:03;;;;;;;5.53;5.03;;;8.90;99.90;;;;;;4921451;29;20214;-60
2022/01/20 06:56:38;;;;;;;5.05;4.65;;;9.00;99.90;;;;;;4918512;29;20240;-60
2022/01/20 06:59:11;;;;;;;5.18;4.78;;;9.00;99.90;;;;;;4925972;29;20190;-61
2022/01/20 07:01:42;;;;;;;4.40;4.00;;;9.00;99.90;;;;;;4918018;29;20309;-61
2022/01/20 07:04:15;;;;;;;5.00;4.53;;;9.10;99.90;;;;;;4915566;29;20227;-61
2022/01/20 07:06:46;;;;;;;5.10;4.03;;;9.10;99.90;;;;;;4923411;29;20537;-60
2022/01/20 07:09:17;;;;;;;4.63;3.90;;;9.10;99.90;;;;;;4925754;29;20201;-60
2022/01/20 07:11:50;;;;;;;4.72;4.32;;;9.20;99.90;;;;;;4926379;29;20270;-61
2022/01/20 07:14:20;;;;;;;4.60;4.03;;;9.20;99.90;;;;;;4926800;29;20210;-60
2022/01/20 07:16:51;;;;;;;4.40;4.00;;;9.20;99.90;;;;;;4927561;29;20464;-61
2022/01/20 07:19:22;;;;;;;5.13;4.63;;;9.20;99.90;;;;;;4921284;29;20460;-61
2022/01/20 07:21:53;;;;;;;4.40;4.00;;;9.20;99.90;;;;;;4911860;29;20207;-61
2022/01/20 07:24:24;;;;;;;4.20;3.90;;;9.20;99.90;;;;;;4910102;29;20303;-60
2022/01/20 07:26:57;;;;;;;5.50;5.00;;;9.20;99.90;;;;;;4924832;29;20305;-61
2022/01/20 07:29:30;;;;;;;4.60;4.20;;;9.20;99.90;;;;;;4924941;29;20543;-60
2022/01/20 07:32:03;;;;;;;4.80;4.40;;;9.10;99.90;;;;;;4927536;29;20282;-60
2022/01/20 07:34:34;;;;;;;4.70;4.30;;;9.10;99.90;;;;;;4922665;29;20663;-60
2022/01/20 07:37:06;;;;;;;5.72;5.05;;;9.10;99.90;;;;;;4926345;29;20258;-61
2022/01/20 07:39:37;;;;;;;4.68;4.28;;;9.10;99.90;;;;;;4911335;29;20226;-61
2022/01/20 07:42:11;;;;;;;4.85;4.35;;;9.10;99.90;;;;;;4927037;29;20266;-60
2022/01/20 07:44:42;;;;;;;5.50;5.00;;;9.10;99.90;;;;;;4916959;29;20305;-59
2022/01/20 07:47:13;;;;;;;5.90;5.22;;;9.00;99.90;;;;;;4926570;29;20207;-61
2022/01/20 07:49:44;;;;;;;5.85;5.10;;;9.00;99.90;;;;;;4913595;29;20567;-60
2022/01/20 07:52:18;;;;;;;5.40;4.80;;;9.10;99.90;;;;;;4920499;29;20210;-60
2022/01/20 07:54:49;;;;;;;5.90;5.40;;;9.10;99.90;;;;;;4924423;29;20266;-61
2022/01/20 07:57:24;;;;;;;5.00;4.47;;;9.10;99.90;;;;;;4923370;29;20313;-61
2022/01/20 07:59:55;;;;;;;5.80;5.30;;;9.20;99.90;;;;;;4925640;29;20266;-61
2022/01/20 08:02:26;;;;;;;6.82;4.82;;;9.20;99.90;;;;;;4925844;29;20361;-61
2022/01/20 08:04:58;;;;;;;6.07;4.50;;;9.20;99.90;;;;;;4922756;29;20234;-61
2022/01/20 08:07:31;;;;;;;5.32;4.78;;;9.10;99.90;;;;;;4922859;29;20961;-61
2022/01/20 08:10:02;;;;;;;6.95;5.05;;;9.10;99.90;;;;;;4925938;29;20606;-61
2022/01/20 08:12:37;;;;;;;4.80;4.40;;;9.10;99.90;;;;;;4923351;29;20222;-61
2022/01/20 08:15:10;;;;;;;4.95;4.55;;;9.10;99.90;;;;;;4925651;29;20225;-61
2022/01/20 08:17:41;;;;;;;5.20;4.80;;;9.20;99.90;;;;;;4917676;29;20278;-61
2022/01/20 08:20:16;;;;;;;5.65;5.05;;;9.30;99.90;;;;;;4926267;29;20257;-61
2022/01/20 08:22:47;;;;;;;5.40;4.90;;;9.20;99.90;;;;;;4917380;29;20218;-61
2022/01/20 08:25:23;;;;;;;4.60;4.20;;;9.20;99.90;;;;;;4915696;29;20290;-62
2022/01/20 08:27:56;;;;;;;4.85;4.30;;;9.20;99.90;;;;;;4926839;29;20221;-61
2022/01/20 08:30:28;;;;;;;4.82;4.43;;;9.30;99.90;;;;;;4925857;29;20202;-61
2022/01/20 08:33:00;;;;;;;4.60;4.20;;;9.30;99.90;;;;;;4921893;29;20310;-61
2022/01/20 08:35:32;;;;;;;4.60;4.22;;;9.30;99.90;;;;;;4913629;29;20209;-61
2022/01/20 08:38:03;;;;;;;5.90;5.33;;;9.30;99.90;;;;;;4923501;29;20266;-60
2022/01/20 08:40:35;;;;;;;5.30;4.80;;;9.40;99.90;;;;;;4924833;29;20465;-60
2022/01/20 08:43:07;;;;;;;5.80;4.90;;;9.40;99.90;;;;;;4923473;29;20468;-61
2022/01/20 08:45:39;;;;;;;5.30;4.80;;;9.50;99.90;;;;;;4913819;29;20238;-60
2022/01/20 08:48:12;;;;;;;5.20;4.67;;;9.60;99.90;;;;;;4918826;29;20471;-60
2022/01/20 08:50:44;;;;;;;5.03;4.53;;;9.60;99.90;;;;;;4919336;29;20455;-60
2022/01/20 08:53:16;;;;;;;5.40;4.90;;;9.70;99.90;;;;;;4916748;29;20526;-60
2022/01/20 08:55:46;;;;;;;5.28;4.78;;;9.70;99.90;;;;;;4905332;29;20463;-60
2022/01/20 08:58:20;;;;;;;3.85;3.53;;;9.80;99.90;;;;;;4917315;29;20593;-61
2022/01/20 09:00:51;;;;;;;2.80;2.57;;;9.90;99.90;;;;;;4913062;29;20294;-60
2022/01/20 09:03:24;;;;;;;3.17;2.87;;;10.20;99.90;;;;;;4918742;29;20465;-60
2022/01/20 09:05:55;;;;;;;2.30;2.10;;;10.50;99.90;;;;;;4924166;29;20485;-60
2022/01/20 09:08:26;;;;;;;2.17;2.00;;;10.70;99.90;;;;;;4925900;29;20541;-60
2022/01/20 09:11:01;;;;;;;1.80;1.70;;;10.80;99.90;;;;;;4924707;29;20572;-61
2022/01/20 09:16:21;;;;;;;1.63;1.53;;;11.10;99.90;;;;;;4928788;29;20485;-61
2022/01/20 09:18:52;;;;;;;1.37;1.27;;;11.30;99.90;;;;;;4930489;29;20497;-61
2022/01/20 09:21:27;;;;;;;2.00;1.60;;;11.40;99.90;;;;;;4919901;29;20459;-60
2022/01/20 09:23:59;;;;;;;1.10;1.00;;;11.50;99.90;;;;;;4928500;29;20544;-60
2022/01/20 09:26:29;;;;;;;1.70;1.30;;;11.60;99.90;;;;;;4924412;29;20464;-60
2022/01/20 09:29:02;;;;;;;1.33;1.23;;;11.70;99.90;;;;;;4925633;29;20477;-60
2022/01/20 09:31:37;;;;;;;1.23;0.90;;;11.70;99.90;;;;;;4928486;29;20455;-60
2022/01/20 09:34:09;;;;;;;1.10;1.00;;;11.80;99.90;;;;;;4923277;29;20461;-60
2022/01/20 09:36:40;;;;;;;1.47;1.37;;;11.80;99.90;;;;;;4925978;29;20513;-60
2022/01/20 09:39:11;;;;;;;0.93;0.90;;;11.80;99.90;;;;;;4919978;29;20459;-60
2022/01/20 09:41:41;;;;;;;1.43;1.30;;;11.80;99.90;;;;;;4922823;29;20455;-60
2022/01/20 09:44:14;;;;;;;1.30;1.27;;;11.80;99.90;;;;;;4930528;29;20466;-60
2022/01/20 09:46:48;;;;;;;0.83;0.83;;;11.90;99.90;;;;;;4923813;29;20461;-61
2022/01/20 09:49:19;;;;;;;1.23;1.13;;;11.90;99.90;;;;;;4925788;29;20490;-60
2022/01/20 09:51:52;;;;;;;1.10;1.10;;;11.90;99.90;;;;;;4928152;29;20463;-60
2022/01/20 09:54:23;;;;;;;1.50;1.00;;;12.00;99.90;;;;;;4922290;29;20458;-60
2022/01/20 09:56:55;;;;;;;0.90;0.80;;;11.90;99.90;;;;;;4918865;29;20463;-60
2022/01/20 09:59:30;;;;;;;1.33;0.80;;;12.00;99.90;;;;;;4931379;29;20461;-60
2022/01/20 10:02:01;;;;;;;1.77;0.83;;;12.10;99.90;;;;;;4928445;29;20927;-61
2022/01/20 10:04:35;;;;;;;1.20;1.10;;;12.10;99.90;;;;;;4924385;29;20488;-60
2022/01/20 10:07:08;;;;;;;1.30;1.20;;;12.10;99.90;;;;;;4928278;29;20458;-60
2022/01/20 10:09:42;;;;;;;2.60;1.40;;;12.10;99.90;;;;;;4926408;29;20473;-60
2022/01/20 10:12:15;;;;;;;1.30;1.20;;;12.20;99.90;;;;;;4925762;29;20455;-60
2022/01/20 10:14:51;;;;;;;1.00;1.00;;;12.20;99.90;;;;;;4930380;29;20542;-60
2022/01/20 10:17:23;;;;;;;1.50;1.40;;;12.20;99.90;;;;;;4919472;29;20446;-60
2022/01/20 10:19:55;;;;;;;1.50;1.40;;;12.20;99.90;;;;;;4930855;29;20447;-59
2022/01/20 10:22:26;;;;;;;1.10;1.10;;;12.20;99.90;;;;;;4920260;29;20498;-60
2022/01/20 10:25:02;;;;;;;2.83;1.67;;;12.30;99.90;;;;;;4919201;29;20488;-60
2022/01/20 10:27:34;;;;;;;1.77;1.67;;;12.30;99.90;;;;;;4928170;29;20446;-61
2022/01/20 10:30:11;;;;;;;1.77;1.67;;;12.30;99.90;;;;;;4915831;29;20813;-60
2022/01/20 10:32:43;;;;;;;1.50;1.40;;;12.30;99.90;;;;;;4913534;29;20971;-61
2022/01/20 10:35:19;;;;;;;2.60;1.30;;;12.30;99.90;;;;;;4921135;29;20447;-62
2022/01/20 10:38:01;;;;;;;1.70;1.60;;;12.30;99.90;;;;;;4919288;29;20448;-61
2022/01/20 10:40:32;;;;;;;1.90;1.80;;;12.30;99.90;;;;;;4925522;29;20927;-61
2022/01/20 10:43:05;;;;;;;2.20;1.90;;;12.30;99.90;;;;;;4923125;29;20455;-61
2022/01/20 10:45:38;;;;;;;1.43;1.33;;;12.30;99.90;;;;;;4926142;29;20989;-61
2022/01/20 10:48:19;;;;;;;2.17;1.70;;;12.40;99.90;;;;;;4916197;29;20479;-61
2022/01/20 10:50:50;;;;;;;2.07;1.90;;;12.30;99.90;;;;;;4923867;29;20461;-61
2022/01/20 10:53:22;;;;;;;2.10;1.50;;;12.40;99.90;;;;;;4923244;29;20449;-61
2022/01/20 10:56:05;;;;;;;2.77;1.70;;;12.40;99.90;;;;;;4914872;29;20554;-61
2022/01/20 10:58:38;;;;;;;2.20;1.70;;;12.40;99.90;;;;;;4927642;29;20451;-61
2022/01/20 11:01:21;;;;;;;1.97;1.77;;;12.40;99.90;;;;;;4926525;29;20581;-61
2022/01/20 11:03:52;;;;;;;1.70;1.60;;;12.40;99.90;;;;;;4918070;29;20545;-61
2022/01/20 11:06:22;;;;;;;3.90;1.37;;;12.40;99.90;;;;;;4921324;29;20521;-61
2022/01/20 11:08:54;;;;;;;1.80;1.70;;;12.40;99.90;;;;;;4918054;29;20783;-61
2022/01/20 11:11:25;;;;;;;1.17;1.17;;;12.40;99.90;;;;;;4926265;29;20455;-61
2022/01/20 11:13:57;;;;;;;2.17;1.23;;;12.40;99.90;;;;;;4921049;29;20884;-61
2022/01/20 11:16:30;;;;;;;1.37;1.30;;;12.30;99.90;;;;;;4926266;29;20483;-61
2022/01/20 11:19:01;;;;;;;1.40;1.30;;;12.30;99.90;;;;;;4927009;29;20457;-61
2022/01/20 11:21:32;;;;;;;1.20;1.20;;;12.40;99.90;;;;;;4918485;29;20553;-61
2022/01/20 11:24:03;;;;;;;1.30;1.20;;;12.30;99.90;;;;;;4917149;29;20459;-61
2022/01/20 11:26:35;;;;;;;1.20;1.20;;;12.40;99.90;;;;;;4926008;29;20525;-61
2022/01/20 11:29:06;;;;;;;1.50;1.10;;;12.40;99.90;;;;;;4915144;29;20491;-61
2022/01/20 11:31:41;;;;;;;1.40;1.30;;;12.40;99.90;;;;;;4919764;29;20454;-61
2022/01/20 11:34:35;;;;;;;1.60;1.50;;;12.40;99.90;;;;;;4919969;29;20467;-61
2022/01/20 11:37:09;;;;;;;1.57;1.47;;;12.40;99.90;;;;;;4926849;29;20461;-61
2022/01/20 11:39:50;;;;;;;1.37;1.30;;;12.50;99.90;;;;;;4925686;29;20455;-61
2022/01/20 11:42:26;;;;;;;1.43;1.33;;;12.40;99.90;;;;;;4927647;29;20578;-61
2022/01/20 11:44:57;;;;;;;1.80;1.70;;;12.40;99.90;;;;;;4925037;29;20489;-61
2022/01/20 11:47:35;;;;;;;1.90;1.80;;;12.40;99.90;;;;;;4926129;29;20496;-61
2022/01/20 11:50:17;;;;;;;1.80;1.70;;;12.50;99.90;;;;;;4914917;29;20526;-61
2022/01/20 11:52:48;;;;;;;1.57;1.47;;;12.50;99.90;;;;;;4923799;29;20456;-61
2022/01/20 11:55:30;;;;;;;1.83;1.47;;;12.40;99.90;;;;;;4923809;29;20455;-61
2022/01/20 11:58:13;;;;;;;1.40;1.30;;;12.40;99.90;;;;;;4917061;29;20578;-61
2022/01/20 12:00:43;;;;;;;1.67;1.57;;;12.50;99.90;;;;;;4923992;29;20463;-61
2022/01/20 12:03:17;;;;;;;1.63;1.40;;;12.50;99.90;;;;;;4924053;29;20514;-61
2022/01/20 12:05:59;;;;;;;1.47;1.37;;;12.50;99.90;;;;;;4920994;29;20490;-61
2022/01/20 12:08:30;;;;;;;2.13;1.60;;;12.50;99.90;;;;;;4924745;29;20458;-61
2022/01/20 12:11:03;;;;;;;1.97;1.50;;;12.50;99.90;;;;;;4913024;29;20549;-61
2022/01/20 12:13:33;;;;;;;1.70;1.60;;;12.50;99.90;;;;;;4912379;29;20467;-60
2022/01/20 12:16:05;;;;;;;2.10;2.00;;;12.50;99.90;;;;;;4916631;29;20494;-61
2022/01/20 12:18:38;;;;;;;1.53;1.43;;;12.50;99.90;;;;;;4923694;29;20451;-62
2022/01/20 12:21:08;;;;;;;2.67;1.70;;;12.50;99.90;;;;;;4912508;29;20969;-61
2022/01/20 12:23:43;;;;;;;2.27;1.80;;;12.50;99.90;;;;;;4922109;29;20470;-61
2022/01/20 12:26:14;;;;;;;1.83;1.73;;;12.60;99.90;;;;;;4920836;29;20565;-61
2022/01/20 12:28:45;;;;;;;2.00;1.80;;;12.50;99.90;;;;;;4924562;29;20463;-61
2022/01/20 12:31:17;;;;;;;1.90;1.80;;;12.50;99.90;;;;;;4915050;29;20479;-62
2022/01/20 12:33:52;;;;;;;2.27;2.07;;;12.50;99.90;;;;;;4914800;29;20506;-63
2022/01/20 12:36:23;;;;;;;2.63;1.80;;;12.50;99.90;;;;;;4916450;29;20435;-63
2022/01/20 12:38:54;;;;;;;3.33;2.30;;;12.60;99.90;;;;;;4924539;29;20565;-61
2022/01/20 12:41:26;;;;;;;2.60;1.87;;;12.60;99.90;;;;;;4925078;29;20561;-62
2022/01/20 12:44:04;;;;;;;2.20;2.00;;;12.60;99.90;;;;;;4915266;29;20459;-60
2022/01/20 12:46:39;;;;;;;4.40;2.20;;;12.60;99.90;;;;;;4912787;29;20509;-62
2022/01/20 12:49:13;;;;;;;2.40;1.83;;;12.60;99.90;;;;;;4924419;29;20576;-62
2022/01/20 12:51:47;;;;;;;2.33;2.13;;;12.50;99.90;;;;;;4926130;29;20450;-61
2022/01/20 12:54:21;;;;;;;3.63;1.70;;;12.60;99.90;;;;;;4925110;29;20534;-61
2022/01/20 12:56:53;;;;;;;4.20;2.63;;;12.50;99.90;;;;;;4926471;29;20459;-62
2022/01/20 12:59:26;;;;;;;3.10;1.90;;;12.50;99.90;;;;;;4925443;29;20460;-61
2022/01/20 13:02:05;;;;;;;3.70;1.80;;;12.50;99.90;;;;;;4916305;29;20463;-62
2022/01/20 13:04:40;;;;;;;1.90;1.80;;;12.60;99.90;;;;;;4918458;29;20459;-62
2022/01/20 13:07:15;;;;;;;2.07;1.70;;;12.50;99.90;;;;;;4921245;29;20545;-62
2022/01/20 13:09:49;;;;;;;2.93;1.73;;;12.50;99.90;;;;;;4913726;29;20451;-61
2022/01/20 13:12:33;;;;;;;1.90;1.80;;;12.50;99.90;;;;;;4915248;29;20469;-62
2022/01/20 13:15:05;;;;;;;1.77;1.63;;;12.50;99.90;;;;;;4910462;29;20484;-61
2022/01/20 13:17:36;;;;;;;1.70;1.60;;;12.50;99.90;;;;;;4910961;29;20463;-61
2022/01/20 13:20:19;;;;;;;1.67;1.50;;;12.50;99.90;;;;;;4919115;29;20455;-62
2022/01/20 13:22:59;;;;;;;3.37;1.47;;;12.50;99.90;;;;;;4911014;29;20459;-62
2022/01/20 13:25:39;;;;;;;1.57;1.47;;;12.40;99.90;;;;;;4917769;29;21018;-62
2022/01/20 13:28:13;;;;;;;1.60;1.50;;;12.40;99.90;;;;;;4915285;29;20570;-61
2022/01/20 13:30:47;;;;;;;1.70;1.60;;;12.50;99.90;;;;;;4921099;29;20471;-61
2022/01/20 13:33:19;;;;;;;2.00;1.33;;;12.40;99.90;;;;;;4925450;29;20482;-61
2022/01/20 13:35:59;;;;;;;1.93;1.73;;;12.50;99.90;;;;;;4916888;29;20545;-61
2022/01/20 13:38:32;;;;;;;1.70;1.60;;;12.50;99.90;;;;;;4918329;29;20466;-61
2022/01/20 13:41:08;;;;;;;1.83;1.73;;;12.40;99.90;;;;;;4920998;29;20458;-62
2022/01/20 13:46:39;;;;;;;1.50;1.40;;;12.40;99.90;;;;;;4915730;29;20511;-61
2022/01/20 13:49:11;;;;;;;2.97;1.67;;;12.40;99.90;;;;;;4917174;29;20513;-62
2022/01/20 13:51:44;;;;;;;2.00;1.90;;;12.40;99.90;;;;;;4910331;29;20446;-62
2022/01/20 13:54:14;;;;;;;1.83;1.73;;;12.40;99.90;;;;;;4925049;29;20458;-62
2022/01/20 13:56:53;;;;;;;1.90;1.77;;;12.50;99.90;;;;;;4917343;29;20646;-62
2022/01/20 13:59:23;;;;;;;1.87;1.70;;;12.40;99.90;;;;;;4921431;29;20455;-61
2022/01/20 14:01:59;;;;;;;3.10;2.07;;;12.50;99.90;;;;;;4925896;29;20446;-62
2022/01/20 14:04:30;;;;;;;1.73;1.63;;;12.50;99.90;;;;;;4917822;29;20434;-62
2022/01/20 14:07:02;;;;;;;1.97;1.87;;;12.40;99.90;;;;;;4922361;29;20501;-62
2022/01/20 14:09:33;;;;;;;1.80;1.70;;;12.50;99.90;;;;;;4915693;29;20459;-62
2022/01/20 14:12:05;;;;;;;2.20;2.10;;;12.50;99.90;;;;;;4928201;29;20447;-62
2022/01/20 14:14:39;;;;;;;1.83;1.73;;;12.50;99.90;;;;;;4928919;29;20464;-62
2022/01/20 14:17:19;;;;;;;1.87;1.67;;;12.50;99.90;;;;;;4925406;29;20446;-62
2022/01/20 14:19:56;;;;;;;1.53;1.43;;;12.40;99.90;;;;;;4929349;29;20937;-62